sensor_id;sensor_type;location;lat;lon;timestamp;P1;durP1;ratioP1;P2;durP2;ratioP2
26253;SDS011;53339;51.378;0.094;2023-05-14T00:01:34;27.45;;;13.70;;
26253;SDS011;53339;51.378;0.094;2023-05-14T00:04:11;25.80;;;13.10;;
26253;SDS011;53339;51.378;0.094;2023-05-14T00:06:56;24.25;;;13.52;;
26253;SDS011;53339;51.378;0.094;2023-05-14T00:09:42;26.10;;;13.45;;
26253;SDS011;53339;51.378;0.094;2023-05-14T00:12:34;25.95;;;13.35;;
26253;SDS011;53339;51.378;0.094;2023-05-14T00:17:55;24.33;;;13.93;;
26253;SDS011;53339;51.378;0.094;2023-05-14T00:20:40;26.73;;;13.77;;
26253;SDS011;53339;51.378;0.094;2023-05-14T00:23:14;26.92;;;13.70;;
26253;SDS011;53339;51.378;0.094;2023-05-14T00:25:46;25.35;;;12.63;;
26253;SDS011;53339;51.378;0.094;2023-05-14T00:28:23;23.17;;;12.20;;
26253;SDS011;53339;51.378;0.094;2023-05-14T00:31:00;23.70;;;11.73;;
26253;SDS011;53339;51.378;0.094;2023-05-14T00:33:34;25.08;;;13.75;;
26253;SDS011;53339;51.378;0.094;2023-05-14T00:36:12;25.40;;;13.77;;
26253;SDS011;53339;51.378;0.094;2023-05-14T00:38:52;26.55;;;13.30;;
26253;SDS011;53339;51.378;0.094;2023-05-14T00:41:26;25.42;;;13.75;;
26253;SDS011;53339;51.378;0.094;2023-05-14T00:44:00;27.45;;;13.48;;
26253;SDS011;53339;51.378;0.094;2023-05-14T00:46:39;24.88;;;11.75;;
26253;SDS011;53339;51.378;0.094;2023-05-14T00:49:21;22.92;;;12.55;;
26253;SDS011;53339;51.378;0.094;2023-05-14T00:51:56;28.92;;;13.52;;
26253;SDS011;53339;51.378;0.094;2023-05-14T00:54:43;29.10;;;14.98;;
26253;SDS011;53339;51.378;0.094;2023-05-14T00:57:24;26.90;;;13.90;;
26253;SDS011;53339;51.378;0.094;2023-05-14T01:00:05;26.42;;;13.50;;
26253;SDS011;53339;51.378;0.094;2023-05-14T01:02:47;24.75;;;12.77;;
26253;SDS011;53339;51.378;0.094;2023-05-14T01:05:28;25.33;;;14.00;;
26253;SDS011;53339;51.378;0.094;2023-05-14T01:11:32;26.75;;;13.70;;
26253;SDS011;53339;51.378;0.094;2023-05-14T01:14:19;27.58;;;14.13;;
26253;SDS011;53339;51.378;0.094;2023-05-14T01:17:31;29.00;;;13.32;;
26253;SDS011;53339;51.378;0.094;2023-05-14T01:20:26;25.27;;;12.73;;
26253;SDS011;53339;51.378;0.094;2023-05-14T01:23:01;29.67;;;14.57;;
26253;SDS011;53339;51.378;0.094;2023-05-14T01:25:32;28.58;;;13.88;;
26253;SDS011;53339;51.378;0.094;2023-05-14T01:28:30;30.05;;;14.60;;
26253;SDS011;53339;51.378;0.094;2023-05-14T01:31:06;25.42;;;13.32;;
26253;SDS011;53339;51.378;0.094;2023-05-14T01:33:54;27.50;;;13.70;;
26253;SDS011;53339;51.378;0.094;2023-05-14T01:36:36;27.25;;;13.88;;
26253;SDS011;53339;51.378;0.094;2023-05-14T01:39:17;33.17;;;15.80;;
26253;SDS011;53339;51.378;0.094;2023-05-14T01:41:49;24.70;;;13.60;;
26253;SDS011;53339;51.378;0.094;2023-05-14T01:44:36;30.15;;;14.95;;
26253;SDS011;53339;51.378;0.094;2023-05-14T01:47:07;27.27;;;13.65;;
26253;SDS011;53339;51.378;0.094;2023-05-14T01:49:40;29.27;;;15.23;;
26253;SDS011;53339;51.378;0.094;2023-05-14T01:52:24;26.15;;;12.98;;
26253;SDS011;53339;51.378;0.094;2023-05-14T01:55:01;26.45;;;13.30;;
26253;SDS011;53339;51.378;0.094;2023-05-14T01:57:40;27.60;;;12.82;;
26253;SDS011;53339;51.378;0.094;2023-05-14T02:00:13;27.38;;;14.23;;
26253;SDS011;53339;51.378;0.094;2023-05-14T02:02:46;27.45;;;13.52;;
26253;SDS011;53339;51.378;0.094;2023-05-14T02:05:25;29.67;;;14.13;;
26253;SDS011;53339;51.378;0.094;2023-05-14T02:08:03;24.13;;;13.05;;
26253;SDS011;53339;51.378;0.094;2023-05-14T02:10:38;24.63;;;12.60;;
26253;SDS011;53339;51.378;0.094;2023-05-14T02:13:16;27.52;;;14.90;;
26253;SDS011;53339;51.378;0.094;2023-05-14T02:15:59;24.35;;;13.48;;
26253;SDS011;53339;51.378;0.094;2023-05-14T02:18:37;30.60;;;13.80;;
26253;SDS011;53339;51.378;0.094;2023-05-14T02:21:13;28.20;;;14.60;;
26253;SDS011;53339;51.378;0.094;2023-05-14T02:23:49;27.80;;;14.23;;
26253;SDS011;53339;51.378;0.094;2023-05-14T02:26:29;28.77;;;14.93;;
26253;SDS011;53339;51.378;0.094;2023-05-14T02:29:01;32.90;;;16.30;;
26253;SDS011;53339;51.378;0.094;2023-05-14T02:31:41;29.33;;;13.90;;
26253;SDS011;53339;51.378;0.094;2023-05-14T02:34:20;31.35;;;14.43;;
26253;SDS011;53339;51.378;0.094;2023-05-14T02:36:59;28.67;;;15.07;;
26253;SDS011;53339;51.378;0.094;2023-05-14T02:39:43;29.13;;;13.95;;
26253;SDS011;53339;51.378;0.094;2023-05-14T02:42:19;28.35;;;13.98;;
26253;SDS011;53339;51.378;0.094;2023-05-14T02:45:00;29.30;;;15.40;;
26253;SDS011;53339;51.378;0.094;2023-05-14T02:47:38;26.55;;;14.63;;
26253;SDS011;53339;51.378;0.094;2023-05-14T02:50:20;28.60;;;14.27;;
26253;SDS011;53339;51.378;0.094;2023-05-14T02:53:05;28.90;;;13.60;;
26253;SDS011;53339;51.378;0.094;2023-05-14T02:58:23;27.40;;;13.45;;
26253;SDS011;53339;51.378;0.094;2023-05-14T03:00:56;30.75;;;13.70;;
26253;SDS011;53339;51.378;0.094;2023-05-14T03:03:34;30.02;;;13.30;;
26253;SDS011;53339;51.378;0.094;2023-05-14T03:06:07;27.20;;;13.43;;
26253;SDS011;53339;51.378;0.094;2023-05-14T03:08:49;27.23;;;13.18;;
26253;SDS011;53339;51.378;0.094;2023-05-14T03:11:36;28.65;;;13.75;;
26253;SDS011;53339;51.378;0.094;2023-05-14T03:14:09;31.30;;;14.20;;
26253;SDS011;53339;51.378;0.094;2023-05-14T03:16:42;30.60;;;15.25;;
26253;SDS011;53339;51.378;0.094;2023-05-14T03:19:24;26.95;;;13.07;;
26253;SDS011;53339;51.378;0.094;2023-05-14T03:22:09;27.45;;;14.10;;
26253;SDS011;53339;51.378;0.094;2023-05-14T03:24:41;31.10;;;13.68;;
26253;SDS011;53339;51.378;0.094;2023-05-14T03:27:20;30.77;;;16.05;;
26253;SDS011;53339;51.378;0.094;2023-05-14T03:29:55;30.02;;;14.13;;
26253;SDS011;53339;51.378;0.094;2023-05-14T03:32:30;27.80;;;14.15;;
26253;SDS011;53339;51.378;0.094;2023-05-14T03:35:11;28.95;;;13.77;;
26253;SDS011;53339;51.378;0.094;2023-05-14T03:37:53;31.70;;;16.00;;
26253;SDS011;53339;51.378;0.094;2023-05-14T03:40:38;36.90;;;16.67;;
26253;SDS011;53339;51.378;0.094;2023-05-14T03:43:20;35.00;;;14.10;;
26253;SDS011;53339;51.378;0.094;2023-05-14T03:45:55;34.08;;;16.67;;
26253;SDS011;53339;51.378;0.094;2023-05-14T03:48:31;30.95;;;13.95;;
26253;SDS011;53339;51.378;0.094;2023-05-14T03:51:07;34.97;;;15.52;;
26253;SDS011;53339;51.378;0.094;2023-05-14T03:53:44;30.77;;;14.90;;
26253;SDS011;53339;51.378;0.094;2023-05-14T03:56:23;31.45;;;13.88;;
26253;SDS011;53339;51.378;0.094;2023-05-14T03:58:59;36.63;;;15.70;;
26253;SDS011;53339;51.378;0.094;2023-05-14T04:01:37;36.42;;;15.45;;
26253;SDS011;53339;51.378;0.094;2023-05-14T04:04:09;33.75;;;14.73;;
26253;SDS011;53339;51.378;0.094;2023-05-14T04:06:54;38.97;;;16.83;;
26253;SDS011;53339;51.378;0.094;2023-05-14T04:09:28;33.97;;;15.65;;
26253;SDS011;53339;51.378;0.094;2023-05-14T04:12:08;33.35;;;15.98;;
26253;SDS011;53339;51.378;0.094;2023-05-14T04:14:45;34.55;;;15.88;;
26253;SDS011;53339;51.378;0.094;2023-05-14T04:17:27;33.75;;;14.95;;
26253;SDS011;53339;51.378;0.094;2023-05-14T04:20:07;33.53;;;15.43;;
26253;SDS011;53339;51.378;0.094;2023-05-14T04:22:36;33.65;;;15.93;;
26253;SDS011;53339;51.378;0.094;2023-05-14T04:25:20;34.05;;;15.13;;
26253;SDS011;53339;51.378;0.094;2023-05-14T04:27:54;32.78;;;15.20;;
26253;SDS011;53339;51.378;0.094;2023-05-14T04:30:37;38.20;;;16.70;;
26253;SDS011;53339;51.378;0.094;2023-05-14T04:33:14;32.63;;;16.25;;
26253;SDS011;53339;51.378;0.094;2023-05-14T04:35:45;32.80;;;16.63;;
26253;SDS011;53339;51.378;0.094;2023-05-14T04:38:15;36.15;;;17.25;;
26253;SDS011;53339;51.378;0.094;2023-05-14T04:40:45;33.35;;;15.00;;
26253;SDS011;53339;51.378;0.094;2023-05-14T04:43:21;36.58;;;15.93;;
26253;SDS011;53339;51.378;0.094;2023-05-14T04:46:01;34.03;;;15.23;;
26253;SDS011;53339;51.378;0.094;2023-05-14T04:48:43;35.75;;;15.90;;
26253;SDS011;53339;51.378;0.094;2023-05-14T04:51:19;36.08;;;16.00;;
26253;SDS011;53339;51.378;0.094;2023-05-14T04:53:56;34.85;;;15.65;;
26253;SDS011;53339;51.378;0.094;2023-05-14T04:56:31;36.08;;;16.80;;
26253;SDS011;53339;51.378;0.094;2023-05-14T04:59:04;36.58;;;15.70;;
26253;SDS011;53339;51.378;0.094;2023-05-14T05:01:37;35.83;;;16.20;;
26253;SDS011;53339;51.378;0.094;2023-05-14T05:04:13;36.22;;;16.95;;
26253;SDS011;53339;51.378;0.094;2023-05-14T05:06:52;37.00;;;16.67;;
26253;SDS011;53339;51.378;0.094;2023-05-14T05:09:31;37.38;;;17.23;;
26253;SDS011;53339;51.378;0.094;2023-05-14T05:12:11;40.42;;;15.98;;
26253;SDS011;53339;51.378;0.094;2023-05-14T05:14:49;34.10;;;15.93;;
26253;SDS011;53339;51.378;0.094;2023-05-14T05:17:24;38.55;;;15.05;;
26253;SDS011;53339;51.378;0.094;2023-05-14T05:19:58;34.55;;;15.18;;
26253;SDS011;53339;51.378;0.094;2023-05-14T05:22:32;40.53;;;15.60;;
26253;SDS011;53339;51.378;0.094;2023-05-14T05:25:10;34.05;;;15.60;;
26253;SDS011;53339;51.378;0.094;2023-05-14T05:27:46;37.53;;;17.08;;
26253;SDS011;53339;51.378;0.094;2023-05-14T05:30:24;38.95;;;16.50;;
26253;SDS011;53339;51.378;0.094;2023-05-14T05:33:04;35.97;;;15.43;;
26253;SDS011;53339;51.378;0.094;2023-05-14T05:35:34;39.88;;;15.95;;
26253;SDS011;53339;51.378;0.094;2023-05-14T05:38:06;36.42;;;17.15;;
26253;SDS011;53339;51.378;0.094;2023-05-14T05:40:47;34.40;;;14.65;;
26253;SDS011;53339;51.378;0.094;2023-05-14T05:43:17;30.83;;;14.07;;
26253;SDS011;53339;51.378;0.094;2023-05-14T05:45:52;35.70;;;15.13;;
26253;SDS011;53339;51.378;0.094;2023-05-14T05:48:28;29.65;;;14.90;;
26253;SDS011;53339;51.378;0.094;2023-05-14T05:51:02;31.77;;;14.52;;
26253;SDS011;53339;51.378;0.094;2023-05-14T05:53:33;32.90;;;15.43;;
26253;SDS011;53339;51.378;0.094;2023-05-14T05:56:04;37.05;;;15.77;;
26253;SDS011;53339;51.378;0.094;2023-05-14T05:58:40;32.70;;;14.38;;
26253;SDS011;53339;51.378;0.094;2023-05-14T06:01:23;36.28;;;15.50;;
26253;SDS011;53339;51.378;0.094;2023-05-14T06:03:58;34.42;;;15.30;;
26253;SDS011;53339;51.378;0.094;2023-05-14T06:06:28;33.75;;;15.25;;
26253;SDS011;53339;51.378;0.094;2023-05-14T06:09:01;38.85;;;16.23;;
26253;SDS011;53339;51.378;0.094;2023-05-14T06:11:41;35.17;;;16.88;;
26253;SDS011;53339;51.378;0.094;2023-05-14T06:14:14;38.05;;;18.20;;
26253;SDS011;53339;51.378;0.094;2023-05-14T06:16:53;41.42;;;16.42;;
26253;SDS011;53339;51.378;0.094;2023-05-14T06:19:33;39.40;;;17.30;;
26253;SDS011;53339;51.378;0.094;2023-05-14T06:22:10;37.20;;;16.98;;
26253;SDS011;53339;51.378;0.094;2023-05-14T06:25:03;39.53;;;16.95;;
26253;SDS011;53339;51.378;0.094;2023-05-14T06:27:35;36.58;;;14.25;;
26253;SDS011;53339;51.378;0.094;2023-05-14T06:30:21;33.05;;;13.32;;
26253;SDS011;53339;51.378;0.094;2023-05-14T06:32:58;37.30;;;16.17;;
26253;SDS011;53339;51.378;0.094;2023-05-14T06:35:37;37.05;;;16.20;;
26253;SDS011;53339;51.378;0.094;2023-05-14T06:38:08;37.13;;;15.63;;
26253;SDS011;53339;51.378;0.094;2023-05-14T06:40:38;39.15;;;16.33;;
26253;SDS011;53339;51.378;0.094;2023-05-14T06:43:12;36.38;;;15.55;;
26253;SDS011;53339;51.378;0.094;2023-05-14T06:45:49;34.33;;;14.40;;
26253;SDS011;53339;51.378;0.094;2023-05-14T06:48:25;31.90;;;14.02;;
26253;SDS011;53339;51.378;0.094;2023-05-14T06:53:28;28.00;;;12.15;;
26253;SDS011;53339;51.378;0.094;2023-05-14T06:56:12;40.22;;;16.85;;
26253;SDS011;53339;51.378;0.094;2023-05-14T06:58:56;32.38;;;13.85;;
26253;SDS011;53339;51.378;0.094;2023-05-14T07:01:26;34.38;;;15.32;;
26253;SDS011;53339;51.378;0.094;2023-05-14T07:04:06;35.53;;;14.70;;
26253;SDS011;53339;51.378;0.094;2023-05-14T07:06:46;35.65;;;16.05;;
26253;SDS011;53339;51.378;0.094;2023-05-14T07:09:22;39.35;;;17.45;;
26253;SDS011;53339;51.378;0.094;2023-05-14T07:11:56;40.85;;;18.05;;
26253;SDS011;53339;51.378;0.094;2023-05-14T07:14:48;32.50;;;12.60;;
26253;SDS011;53339;51.378;0.094;2023-05-14T07:17:19;32.55;;;13.70;;
26253;SDS011;53339;51.378;0.094;2023-05-14T07:19:58;34.47;;;14.48;;
26253;SDS011;53339;51.378;0.094;2023-05-14T07:22:37;35.33;;;15.60;;
26253;SDS011;53339;51.378;0.094;2023-05-14T07:25:17;39.28;;;16.05;;
26253;SDS011;53339;51.378;0.094;2023-05-14T07:27:54;41.55;;;15.57;;
26253;SDS011;53339;51.378;0.094;2023-05-14T07:30:39;34.30;;;14.68;;
26253;SDS011;53339;51.378;0.094;2023-05-14T07:33:19;33.85;;;16.50;;
26253;SDS011;53339;51.378;0.094;2023-05-14T07:36:05;37.13;;;15.35;;
26253;SDS011;53339;51.378;0.094;2023-05-14T07:38:41;31.55;;;13.60;;
26253;SDS011;53339;51.378;0.094;2023-05-14T07:41:28;34.88;;;14.68;;
26253;SDS011;53339;51.378;0.094;2023-05-14T07:44:03;32.80;;;15.13;;
26253;SDS011;53339;51.378;0.094;2023-05-14T07:46:35;30.38;;;14.50;;
26253;SDS011;53339;51.378;0.094;2023-05-14T07:49:09;33.30;;;13.88;;
26253;SDS011;53339;51.378;0.094;2023-05-14T07:51:44;33.03;;;15.75;;
26253;SDS011;53339;51.378;0.094;2023-05-14T07:54:17;34.55;;;14.95;;
26253;SDS011;53339;51.378;0.094;2023-05-14T07:56:57;32.22;;;14.30;;
26253;SDS011;53339;51.378;0.094;2023-05-14T07:59:27;28.85;;;12.27;;
26253;SDS011;53339;51.378;0.094;2023-05-14T08:02:04;33.65;;;15.98;;
26253;SDS011;53339;51.378;0.094;2023-05-14T08:04:42;33.08;;;15.23;;
26253;SDS011;53339;51.378;0.094;2023-05-14T08:07:14;35.88;;;15.70;;
26253;SDS011;53339;51.378;0.094;2023-05-14T08:09:55;36.90;;;15.88;;
26253;SDS011;53339;51.378;0.094;2023-05-14T08:12:24;30.15;;;13.23;;
26253;SDS011;53339;51.378;0.094;2023-05-14T08:15:00;32.33;;;15.25;;
26253;SDS011;53339;51.378;0.094;2023-05-14T08:17:33;31.48;;;14.70;;
26253;SDS011;53339;51.378;0.094;2023-05-14T08:20:04;34.13;;;15.18;;
26253;SDS011;53339;51.378;0.094;2023-05-14T08:22:45;35.88;;;15.50;;
26253;SDS011;53339;51.378;0.094;2023-05-14T08:25:24;31.95;;;15.13;;
26253;SDS011;53339;51.378;0.094;2023-05-14T08:28:00;31.35;;;15.90;;
26253;SDS011;53339;51.378;0.094;2023-05-14T08:30:45;30.25;;;13.95;;
26253;SDS011;53339;51.378;0.094;2023-05-14T08:33:14;25.50;;;12.15;;
26253;SDS011;53339;51.378;0.094;2023-05-14T08:35:50;28.63;;;14.23;;
26253;SDS011;53339;51.378;0.094;2023-05-14T08:38:29;26.80;;;13.70;;
26253;SDS011;53339;51.378;0.094;2023-05-14T08:41:16;27.17;;;11.93;;
26253;SDS011;53339;51.378;0.094;2023-05-14T08:44:40;25.80;;;12.38;;
26253;SDS011;53339;51.378;0.094;2023-05-14T08:47:20;30.02;;;13.80;;
26253;SDS011;53339;51.378;0.094;2023-05-14T08:50:07;27.55;;;13.50;;
26253;SDS011;53339;51.378;0.094;2023-05-14T08:52:40;28.13;;;14.50;;
26253;SDS011;53339;51.378;0.094;2023-05-14T08:55:17;25.73;;;12.90;;
26253;SDS011;53339;51.378;0.094;2023-05-14T08:57:53;26.17;;;14.25;;
26253;SDS011;53339;51.378;0.094;2023-05-14T09:03:28;20.88;;;12.70;;
26253;SDS011;53339;51.378;0.094;2023-05-14T09:06:13;22.92;;;12.27;;
26253;SDS011;53339;51.378;0.094;2023-05-14T09:08:58;25.92;;;13.98;;
26253;SDS011;53339;51.378;0.094;2023-05-14T09:11:33;26.52;;;12.80;;
26253;SDS011;53339;51.378;0.094;2023-05-14T09:14:19;25.77;;;13.27;;
26253;SDS011;53339;51.378;0.094;2023-05-14T09:17:15;24.92;;;12.20;;
26253;SDS011;53339;51.378;0.094;2023-05-14T09:20:03;26.67;;;13.10;;
26253;SDS011;53339;51.378;0.094;2023-05-14T09:22:45;21.05;;;11.85;;
26253;SDS011;53339;51.378;0.094;2023-05-14T09:25:30;24.65;;;13.52;;
26253;SDS011;53339;51.378;0.094;2023-05-14T09:28:05;24.33;;;12.70;;
26253;SDS011;53339;51.378;0.094;2023-05-14T09:30:38;23.42;;;11.90;;
26253;SDS011;53339;51.378;0.094;2023-05-14T09:33:28;25.80;;;12.70;;
26253;SDS011;53339;51.378;0.094;2023-05-14T09:36:10;26.70;;;13.98;;
26253;SDS011;53339;51.378;0.094;2023-05-14T09:38:52;24.30;;;11.98;;
26253;SDS011;53339;51.378;0.094;2023-05-14T09:41:33;22.75;;;11.27;;
26253;SDS011;53339;51.378;0.094;2023-05-14T09:44:10;23.35;;;13.13;;
26253;SDS011;53339;51.378;0.094;2023-05-14T09:46:58;23.08;;;11.85;;
26253;SDS011;53339;51.378;0.094;2023-05-14T09:49:42;23.60;;;12.30;;
26253;SDS011;53339;51.378;0.094;2023-05-14T09:52:24;23.83;;;12.50;;
26253;SDS011;53339;51.378;0.094;2023-05-14T09:58:01;20.98;;;11.88;;
26253;SDS011;53339;51.378;0.094;2023-05-14T10:00:34;20.92;;;11.90;;
26253;SDS011;53339;51.378;0.094;2023-05-14T10:03:16;21.30;;;10.80;;
26253;SDS011;53339;51.378;0.094;2023-05-14T10:06:09;21.70;;;11.88;;
26253;SDS011;53339;51.378;0.094;2023-05-14T10:08:52;22.17;;;12.63;;
26253;SDS011;53339;51.378;0.094;2023-05-14T10:11:54;19.77;;;11.70;;
26253;SDS011;53339;51.378;0.094;2023-05-14T10:14:46;22.63;;;12.85;;
26253;SDS011;53339;51.378;0.094;2023-05-14T10:17:25;22.95;;;11.52;;
26253;SDS011;53339;51.378;0.094;2023-05-14T10:23:10;21.65;;;11.85;;
26253;SDS011;53339;51.378;0.094;2023-05-14T10:25:53;22.55;;;12.70;;
26253;SDS011;53339;51.378;0.094;2023-05-14T10:28:31;22.38;;;11.88;;
26253;SDS011;53339;51.378;0.094;2023-05-14T10:31:10;22.38;;;13.20;;
26253;SDS011;53339;51.378;0.094;2023-05-14T10:33:48;20.77;;;11.90;;
26253;SDS011;53339;51.378;0.094;2023-05-14T10:36:31;21.08;;;11.52;;
26253;SDS011;53339;51.378;0.094;2023-05-14T10:39:14;20.75;;;11.27;;
26253;SDS011;53339;51.378;0.094;2023-05-14T10:42:00;18.70;;;10.90;;
26253;SDS011;53339;51.378;0.094;2023-05-14T10:44:41;22.58;;;12.65;;
26253;SDS011;53339;51.378;0.094;2023-05-14T10:47:38;23.50;;;13.40;;
26253;SDS011;53339;51.378;0.094;2023-05-14T10:50:25;18.38;;;11.95;;
26253;SDS011;53339;51.378;0.094;2023-05-14T10:53:09;21.40;;;11.48;;
26253;SDS011;53339;51.378;0.094;2023-05-14T10:55:49;20.20;;;12.10;;
26253;SDS011;53339;51.378;0.094;2023-05-14T10:58:56;19.70;;;11.75;;
26253;SDS011;53339;51.378;0.094;2023-05-14T11:01:34;19.88;;;11.48;;
26253;SDS011;53339;51.378;0.094;2023-05-14T11:04:26;21.20;;;11.02;;
26253;SDS011;53339;51.378;0.094;2023-05-14T11:07:12;21.30;;;11.85;;
26253;SDS011;53339;51.378;0.094;2023-05-14T11:10:19;18.23;;;10.57;;
26253;SDS011;53339;51.378;0.094;2023-05-14T11:13:36;17.88;;;10.20;;
26253;SDS011;53339;51.378;0.094;2023-05-14T11:16:27;21.60;;;11.43;;
26253;SDS011;53339;51.378;0.094;2023-05-14T11:19:13;21.35;;;12.07;;
26253;SDS011;53339;51.378;0.094;2023-05-14T11:22:06;21.08;;;11.23;;
26253;SDS011;53339;51.378;0.094;2023-05-14T11:24:47;20.23;;;11.40;;
26253;SDS011;53339;51.378;0.094;2023-05-14T11:27:24;20.48;;;12.35;;
26253;SDS011;53339;51.378;0.094;2023-05-14T11:30:10;19.40;;;11.10;;
26253;SDS011;53339;51.378;0.094;2023-05-14T11:32:58;19.33;;;11.63;;
26253;SDS011;53339;51.378;0.094;2023-05-14T11:35:28;18.58;;;10.70;;
26253;SDS011;53339;51.378;0.094;2023-05-14T11:38:24;23.08;;;11.95;;
26253;SDS011;53339;51.378;0.094;2023-05-14T11:41:00;19.27;;;11.63;;
26253;SDS011;53339;51.378;0.094;2023-05-14T11:43:39;18.85;;;10.65;;
26253;SDS011;53339;51.378;0.094;2023-05-14T11:46:19;20.02;;;11.25;;
26253;SDS011;53339;51.378;0.094;2023-05-14T11:49:11;18.60;;;10.65;;
26253;SDS011;53339;51.378;0.094;2023-05-14T11:52:01;22.05;;;10.80;;
26253;SDS011;53339;51.378;0.094;2023-05-14T11:54:38;20.08;;;11.52;;
26253;SDS011;53339;51.378;0.094;2023-05-14T11:57:20;16.65;;;11.30;;
26253;SDS011;53339;51.378;0.094;2023-05-14T12:00:10;17.23;;;10.95;;
26253;SDS011;53339;51.378;0.094;2023-05-14T12:02:48;19.00;;;11.23;;
26253;SDS011;53339;51.378;0.094;2023-05-14T12:05:55;16.52;;;10.48;;
26253;SDS011;53339;51.378;0.094;2023-05-14T12:08:36;16.35;;;9.68;;
26253;SDS011;53339;51.378;0.094;2023-05-14T12:11:12;16.63;;;9.45;;
26253;SDS011;53339;51.378;0.094;2023-05-14T12:13:42;16.13;;;9.50;;
26253;SDS011;53339;51.378;0.094;2023-05-14T12:16:31;14.50;;;9.32;;
26253;SDS011;53339;51.378;0.094;2023-05-14T12:19:08;15.38;;;9.25;;
26253;SDS011;53339;51.378;0.094;2023-05-14T12:21:54;15.23;;;9.52;;
26253;SDS011;53339;51.378;0.094;2023-05-14T12:25:10;14.63;;;8.13;;
26253;SDS011;53339;51.378;0.094;2023-05-14T12:27:51;13.98;;;9.02;;
26253;SDS011;53339;51.378;0.094;2023-05-14T12:30:22;16.45;;;9.30;;
26253;SDS011;53339;51.378;0.094;2023-05-14T12:33:04;15.02;;;7.85;;
26253;SDS011;53339;51.378;0.094;2023-05-14T12:35:44;13.88;;;7.50;;
26253;SDS011;53339;51.378;0.094;2023-05-14T12:38:19;13.68;;;8.73;;
26253;SDS011;53339;51.378;0.094;2023-05-14T12:40:54;11.68;;;7.32;;
26253;SDS011;53339;51.378;0.094;2023-05-14T12:43:36;16.55;;;10.68;;
26253;SDS011;53339;51.378;0.094;2023-05-14T12:46:26;15.45;;;8.68;;
26253;SDS011;53339;51.378;0.094;2023-05-14T12:49:11;15.45;;;10.20;;
26253;SDS011;53339;51.378;0.094;2023-05-14T12:51:54;10.35;;;6.65;;
26253;SDS011;53339;51.378;0.094;2023-05-14T12:54:57;11.27;;;6.68;;
26253;SDS011;53339;51.378;0.094;2023-05-14T12:57:33;11.50;;;7.60;;
26253;SDS011;53339;51.378;0.094;2023-05-14T13:00:22;12.38;;;7.43;;
26253;SDS011;53339;51.378;0.094;2023-05-14T13:02:59;10.35;;;5.55;;
26253;SDS011;53339;51.378;0.094;2023-05-14T13:05:54;10.20;;;6.28;;
26253;SDS011;53339;51.378;0.094;2023-05-14T13:11:50;9.05;;;5.47;;
26253;SDS011;53339;51.378;0.094;2023-05-14T13:14:29;9.27;;;6.25;;
26253;SDS011;53339;51.378;0.094;2023-05-14T13:17:34;12.60;;;8.60;;
26253;SDS011;53339;51.378;0.094;2023-05-14T13:20:11;9.65;;;6.72;;
26253;SDS011;53339;51.378;0.094;2023-05-14T13:22:51;13.43;;;8.30;;
26253;SDS011;53339;51.378;0.094;2023-05-14T13:25:36;12.60;;;8.43;;
26253;SDS011;53339;51.378;0.094;2023-05-14T13:28:18;10.35;;;6.70;;
26253;SDS011;53339;51.378;0.094;2023-05-14T13:31:11;9.38;;;6.28;;
26253;SDS011;53339;51.378;0.094;2023-05-14T13:33:47;9.63;;;5.75;;
26253;SDS011;53339;51.378;0.094;2023-05-14T13:36:38;11.32;;;7.40;;
26253;SDS011;53339;51.378;0.094;2023-05-14T13:39:37;10.15;;;6.90;;
26253;SDS011;53339;51.378;0.094;2023-05-14T13:42:16;9.80;;;6.43;;
26253;SDS011;53339;51.378;0.094;2023-05-14T13:45:04;9.80;;;5.60;;
26253;SDS011;53339;51.378;0.094;2023-05-14T13:47:47;11.15;;;7.50;;
26253;SDS011;53339;51.378;0.094;2023-05-14T13:50:34;9.90;;;5.85;;
26253;SDS011;53339;51.378;0.094;2023-05-14T13:53:26;11.23;;;6.20;;
26253;SDS011;53339;51.378;0.094;2023-05-14T13:58:47;9.98;;;4.82;;
26253;SDS011;53339;51.378;0.094;2023-05-14T14:01:47;8.98;;;4.95;;
26253;SDS011;53339;51.378;0.094;2023-05-14T14:04:23;9.13;;;5.45;;
26253;SDS011;53339;51.378;0.094;2023-05-14T14:07:08;9.20;;;5.88;;
26253;SDS011;53339;51.378;0.094;2023-05-14T14:09:58;9.55;;;5.70;;
26253;SDS011;53339;51.378;0.094;2023-05-14T14:12:48;11.82;;;6.45;;
26253;SDS011;53339;51.378;0.094;2023-05-14T14:15:24;9.70;;;5.38;;
26253;SDS011;53339;51.378;0.094;2023-05-14T14:18:10;7.63;;;4.90;;
26253;SDS011;53339;51.378;0.094;2023-05-14T14:20:49;9.48;;;5.78;;
26253;SDS011;53339;51.378;0.094;2023-05-14T14:23:53;8.48;;;5.00;;
26253;SDS011;53339;51.378;0.094;2023-05-14T14:26:44;7.13;;;4.45;;
26253;SDS011;53339;51.378;0.094;2023-05-14T14:29:24;9.30;;;5.15;;
26253;SDS011;53339;51.378;0.094;2023-05-14T14:31:59;9.35;;;5.65;;
26253;SDS011;53339;51.378;0.094;2023-05-14T14:34:51;8.25;;;5.38;;
26253;SDS011;53339;51.378;0.094;2023-05-14T14:37:45;9.63;;;5.60;;
26253;SDS011;53339;51.378;0.094;2023-05-14T14:40:31;10.00;;;6.53;;
26253;SDS011;53339;51.378;0.094;2023-05-14T14:43:10;9.45;;;5.28;;
26253;SDS011;53339;51.378;0.094;2023-05-14T14:45:51;11.98;;;6.60;;
26253;SDS011;53339;51.378;0.094;2023-05-14T14:48:47;9.18;;;5.65;;
26253;SDS011;53339;51.378;0.094;2023-05-14T14:51:36;10.05;;;5.18;;
26253;SDS011;53339;51.378;0.094;2023-05-14T14:54:20;7.35;;;4.90;;
26253;SDS011;53339;51.378;0.094;2023-05-14T14:57:11;9.38;;;4.95;;
26253;SDS011;53339;51.378;0.094;2023-05-14T15:00:04;10.13;;;5.82;;
26253;SDS011;53339;51.378;0.094;2023-05-14T15:02:49;10.35;;;6.43;;
26253;SDS011;53339;51.378;0.094;2023-05-14T15:05:23;10.88;;;7.22;;
26253;SDS011;53339;51.378;0.094;2023-05-14T15:08:10;8.95;;;5.95;;
26253;SDS011;53339;51.378;0.094;2023-05-14T15:11:06;6.90;;;4.22;;
26253;SDS011;53339;51.378;0.094;2023-05-14T15:13:52;7.38;;;4.13;;
26253;SDS011;53339;51.378;0.094;2023-05-14T15:16:30;9.15;;;5.30;;
26253;SDS011;53339;51.378;0.094;2023-05-14T15:19:03;9.30;;;5.35;;
26253;SDS011;53339;51.378;0.094;2023-05-14T15:21:42;8.15;;;4.65;;
26253;SDS011;53339;51.378;0.094;2023-05-14T15:24:28;7.55;;;3.85;;
26253;SDS011;53339;51.378;0.094;2023-05-14T15:27:04;8.70;;;4.28;;
26253;SDS011;53339;51.378;0.094;2023-05-14T15:29:48;10.05;;;5.50;;
26253;SDS011;53339;51.378;0.094;2023-05-14T15:32:23;9.43;;;5.35;;
26253;SDS011;53339;51.378;0.094;2023-05-14T15:35:10;9.98;;;5.95;;
26253;SDS011;53339;51.378;0.094;2023-05-14T15:37:54;9.85;;;5.28;;
26253;SDS011;53339;51.378;0.094;2023-05-14T15:40:25;11.43;;;5.15;;
26253;SDS011;53339;51.378;0.094;2023-05-14T15:42:53;9.32;;;5.65;;
26253;SDS011;53339;51.378;0.094;2023-05-14T15:45:25;9.75;;;5.03;;
26253;SDS011;53339;51.378;0.094;2023-05-14T15:48:01;10.32;;;5.50;;
26253;SDS011;53339;51.378;0.094;2023-05-14T15:50:45;8.82;;;5.50;;
26253;SDS011;53339;51.378;0.094;2023-05-14T15:53:45;9.30;;;5.13;;
26253;SDS011;53339;51.378;0.094;2023-05-14T15:56:21;8.55;;;4.93;;
26253;SDS011;53339;51.378;0.094;2023-05-14T15:59:01;8.07;;;5.28;;
26253;SDS011;53339;51.378;0.094;2023-05-14T16:01:54;10.57;;;5.65;;
26253;SDS011;53339;51.378;0.094;2023-05-14T16:04:25;10.45;;;6.03;;
26253;SDS011;53339;51.378;0.094;2023-05-14T16:07:22;10.80;;;5.78;;
26253;SDS011;53339;51.378;0.094;2023-05-14T16:09:53;9.00;;;5.20;;
26253;SDS011;53339;51.378;0.094;2023-05-14T16:12:23;9.10;;;5.43;;